createdAt,value
2022-07-25T00:01:56.856Z,2.72
2022-07-25T00:04:24.980Z,2.63
2022-07-25T00:06:52.228Z,2.63
2022-07-25T00:09:19.464Z,2.92
2022-07-25T00:11:46.713Z,2.30
2022-07-25T00:14:13.979Z,3.00
2022-07-25T00:16:40.796Z,2.78
2022-07-25T00:19:07.648Z,3.17
2022-07-25T00:21:34.900Z,2.67
2022-07-25T00:24:02.422Z,2.20
2022-07-25T00:26:29.910Z,2.95
2022-07-25T00:28:57.137Z,3.10
2022-07-25T00:31:24.462Z,2.45
2022-07-25T00:33:51.705Z,2.72
2022-07-25T00:36:18.615Z,2.95
2022-07-25T00:38:45.849Z,3.45
2022-07-25T00:41:12.684Z,2.70
2022-07-25T00:43:43.332Z,2.55
2022-07-25T00:46:13.553Z,2.80
2022-07-25T00:48:41.296Z,2.90
2022-07-25T00:51:09.306Z,2.83
2022-07-25T00:53:37.256Z,2.65
2022-07-25T00:56:05.320Z,2.80
2022-07-25T00:58:32.880Z,3.17
2022-07-25T01:01:00.630Z,3.20
2022-07-25T01:03:27.980Z,3.13
2022-07-25T01:05:55.252Z,3.22
2022-07-25T01:08:23.018Z,2.90
2022-07-25T01:10:51.049Z,2.90
2022-07-25T01:13:18.337Z,3.10
2022-07-25T01:15:48.583Z,2.60
2022-07-25T01:18:15.656Z,2.30
2022-07-25T01:20:43.018Z,2.90
2022-07-25T01:23:10.331Z,3.05
2022-07-25T01:25:37.630Z,3.10
2022-07-25T01:28:04.946Z,2.67
2022-07-25T01:30:32.241Z,3.03
2022-07-25T01:32:59.443Z,3.13
2022-07-25T01:35:34.165Z,2.70
2022-07-25T01:38:01.425Z,2.50
2022-07-25T01:40:28.801Z,2.80
2022-07-25T01:42:56.012Z,2.80
2022-07-25T01:45:23.388Z,2.40
2022-07-25T01:47:50.663Z,2.80
2022-07-25T01:50:17.947Z,3.25
2022-07-25T01:52:45.274Z,2.38
2022-07-25T01:55:12.499Z,2.70
2022-07-25T01:57:40.523Z,2.83
2022-07-25T02:00:16.645Z,2.38
2022-07-25T02:02:44.941Z,2.78
2022-07-25T02:05:13.076Z,2.97
2022-07-25T02:07:40.427Z,2.40
2022-07-25T02:10:08.191Z,2.83
2022-07-25T02:12:35.284Z,2.92
2022-07-25T02:15:02.501Z,3.17
2022-07-25T02:17:29.401Z,3.05
2022-07-25T02:19:56.674Z,3.00
2022-07-25T02:22:24.087Z,2.97
2022-07-25T02:24:51.411Z,3.70
2022-07-25T02:27:18.623Z,3.65
2022-07-25T02:29:45.823Z,3.22
2022-07-25T02:32:13.037Z,3.40
2022-07-25T02:34:40.265Z,3.17
2022-07-25T02:37:07.512Z,3.22
2022-07-25T02:39:34.721Z,3.35
2022-07-25T02:42:02.055Z,3.28
2022-07-25T02:44:29.269Z,2.90
2022-07-25T02:46:56.569Z,3.03
2022-07-25T02:49:23.796Z,3.03
2022-07-25T02:51:51.362Z,2.60
2022-07-25T02:54:20.065Z,2.88
2022-07-25T02:56:47.314Z,2.90
2022-07-25T02:59:14.522Z,3.28
2022-07-25T03:01:41.829Z,3.25
2022-07-25T03:04:09.712Z,2.95
2022-07-25T03:06:37.711Z,3.05
2022-07-25T03:09:04.934Z,2.85
2022-07-25T03:11:32.208Z,3.20
2022-07-25T03:13:59.025Z,2.95
2022-07-25T03:16:26.445Z,2.78
2022-07-25T03:18:54.500Z,2.72
2022-07-25T03:21:21.469Z,3.45
2022-07-25T03:23:52.392Z,3.40
2022-07-25T03:26:20.382Z,2.80
2022-07-25T03:28:47.312Z,2.95
2022-07-25T03:31:15.173Z,3.05
2022-07-25T03:33:42.676Z,2.70
2022-07-25T03:36:10.588Z,3.15
2022-07-25T03:38:38.363Z,3.42
2022-07-25T03:41:05.803Z,3.35
2022-07-25T03:43:33.503Z,2.67
2022-07-25T03:46:00.810Z,3.55
2022-07-25T03:48:27.737Z,2.70
2022-07-25T03:50:56.511Z,3.22
2022-07-25T03:53:23.724Z,3.35
2022-07-25T03:55:50.918Z,2.90
2022-07-25T03:58:18.160Z,3.65
2022-07-25T04:00:45.468Z,3.67
2022-07-25T04:03:13.660Z,3.03
2022-07-25T04:05:43.050Z,3.70
2022-07-25T04:08:14.316Z,3.10
2022-07-25T04:10:41.524Z,3.22
2022-07-25T04:13:08.534Z,3.35
2022-07-25T04:15:35.323Z,3.72
2022-07-25T04:18:02.572Z,3.55
2022-07-25T04:20:30.084Z,3.45
2022-07-25T04:22:57.305Z,3.50
2022-07-25T04:25:24.528Z,3.42
2022-07-25T04:27:51.790Z,3.38
2022-07-25T04:30:24.092Z,3.15
2022-07-25T04:32:52.087Z,3.25
2022-07-25T04:35:19.342Z,3.53
2022-07-25T04:37:46.592Z,3.60
2022-07-25T04:40:14.160Z,3.70
2022-07-25T04:42:41.354Z,3.50
2022-07-25T04:45:08.916Z,3.70
2022-07-25T04:47:36.123Z,3.25
2022-07-25T04:50:03.443Z,3.33
2022-07-25T04:52:30.735Z,3.13
2022-07-25T04:54:57.960Z,3.28
2022-07-25T04:57:25.169Z,2.90
2022-07-25T04:59:52.424Z,3.08
2022-07-25T05:02:19.733Z,3.50
2022-07-25T05:04:46.989Z,3.22
2022-07-25T05:07:19.877Z,3.28
2022-07-25T05:09:47.896Z,3.38
2022-07-25T05:12:15.205Z,2.90
2022-07-25T05:14:42.448Z,3.08
2022-07-25T05:17:10.201Z,2.78
2022-07-25T05:19:37.525Z,3.30
2022-07-25T05:22:04.825Z,3.40
2022-07-25T05:24:35.431Z,4.00
2022-07-25T05:27:03.095Z,4.18
2022-07-25T05:29:30.661Z,3.40
2022-07-25T05:31:58.039Z,3.20
2022-07-25T05:34:25.467Z,3.65
2022-07-25T05:36:52.868Z,3.80
2022-07-25T05:39:20.572Z,4.10
2022-07-25T05:41:47.959Z,4.28
2022-07-25T05:44:15.279Z,5.10
2022-07-25T05:46:42.683Z,4.20
2022-07-25T05:49:09.890Z,3.90
2022-07-25T05:51:37.170Z,3.85
2022-07-25T05:54:04.378Z,3.55
2022-07-25T05:56:31.758Z,4.15
2022-07-25T05:58:59.217Z,4.05
2022-07-25T06:01:26.490Z,4.38
2022-07-25T06:03:53.803Z,3.13
2022-07-25T06:06:21.017Z,3.78
2022-07-25T06:08:48.222Z,4.53
2022-07-25T06:11:15.990Z,4.80
2022-07-25T06:13:43.292Z,4.97
2022-07-25T06:16:11.121Z,4.43
2022-07-25T06:18:38.396Z,5.00
2022-07-25T06:21:06.584Z,4.07
2022-07-25T06:23:33.396Z,4.13
2022-07-25T06:26:00.733Z,4.90
2022-07-25T06:28:27.966Z,3.63
2022-07-25T06:30:55.359Z,4.40
2022-07-25T06:33:22.684Z,4.50
2022-07-25T06:35:49.904Z,3.88
2022-07-25T06:38:17.144Z,4.15
2022-07-25T06:40:44.561Z,4.22
2022-07-25T06:43:12.254Z,4.30
2022-07-25T06:45:39.497Z,3.95
2022-07-25T06:48:06.917Z,4.57
2022-07-25T06:50:34.161Z,4.60
2022-07-25T06:53:01.352Z,4.70
2022-07-25T06:55:28.609Z,4.43
2022-07-25T06:57:55.917Z,4.68
2022-07-25T07:00:23.337Z,4.35
2022-07-25T07:02:52.267Z,4.28
2022-07-25T07:05:19.804Z,4.60
2022-07-25T07:07:48.012Z,4.20
2022-07-25T07:10:15.877Z,4.18
2022-07-25T07:12:43.175Z,4.15
2022-07-25T07:15:10.879Z,4.47
2022-07-25T07:17:38.144Z,4.63
2022-07-25T07:20:07.002Z,3.70
2022-07-25T07:22:43.724Z,4.50
2022-07-25T07:25:11.010Z,4.25
2022-07-25T07:27:38.565Z,3.70
2022-07-25T07:30:06.080Z,3.88
2022-07-25T07:32:34.053Z,4.40
2022-07-25T07:35:01.394Z,4.03
2022-07-25T07:37:35.063Z,3.95
2022-07-25T07:40:04.377Z,4.00
2022-07-25T07:42:38.137Z,4.10
2022-07-25T07:45:10.773Z,3.75
2022-07-25T07:47:37.971Z,4.20
2022-07-25T07:50:05.547Z,3.88
2022-07-25T07:52:32.840Z,4.13
2022-07-25T07:55:18.795Z,4.40
2022-07-25T07:57:45.618Z,3.80
2022-07-25T08:00:16.546Z,3.97
2022-07-25T08:02:45.069Z,4.00
2022-07-25T08:05:13.944Z,4.38
2022-07-25T08:07:41.247Z,4.30
2022-07-25T08:10:08.691Z,4.43
2022-07-25T08:12:40.623Z,3.78
2022-07-25T08:15:09.182Z,4.38
2022-07-25T08:17:36.486Z,3.50
2022-07-25T08:20:27.901Z,3.88
2022-07-25T08:22:56.675Z,4.30
2022-07-25T08:25:24.432Z,3.70
2022-07-25T08:27:53.244Z,5.30
2022-07-25T08:30:20.481Z,4.60
2022-07-25T08:32:52.932Z,4.13
2022-07-25T08:35:20.768Z,4.03
2022-07-25T08:37:49.170Z,4.07
2022-07-25T08:40:17.161Z,4.07
2022-07-25T08:42:44.438Z,4.13
2022-07-25T08:45:13.341Z,4.50
2022-07-25T08:47:41.602Z,4.70
2022-07-25T08:50:10.264Z,4.00
2022-07-25T08:52:37.903Z,3.75
2022-07-25T08:55:06.284Z,3.58
2022-07-25T08:57:34.686Z,4.10
2022-07-25T09:00:02.305Z,3.90
2022-07-25T09:02:29.868Z,4.47
2022-07-25T09:04:58.522Z,3.85
2022-07-25T09:07:32.402Z,4.25
2022-07-25T09:09:59.972Z,3.20
2022-07-25T09:12:28.177Z,3.72
2022-07-25T09:14:56.029Z,4.88
2022-07-25T09:17:23.838Z,3.53
2022-07-25T09:19:56.719Z,3.85
2022-07-25T09:22:24.121Z,4.38
2022-07-25T09:24:51.331Z,4.57
2022-07-25T09:27:18.635Z,4.57
2022-07-25T09:29:45.996Z,3.97
2022-07-25T09:32:21.262Z,4.15
2022-07-25T09:34:49.898Z,4.80
2022-07-25T09:37:18.599Z,4.35
2022-07-25T09:39:48.474Z,4.13
2022-07-25T09:42:17.019Z,3.90
2022-07-25T09:44:44.661Z,3.60
2022-07-25T09:47:16.329Z,4.10
2022-07-25T09:49:44.493Z,4.28
2022-07-25T09:52:12.457Z,4.25
2022-07-25T09:54:40.271Z,4.50
2022-07-25T09:57:07.813Z,4.28
2022-07-25T09:59:35.637Z,4.38
2022-07-25T10:02:21.531Z,4.18
2022-07-25T10:04:51.651Z,3.65
2022-07-25T10:07:21.356Z,4.10
2022-07-25T10:09:50.006Z,3.67
2022-07-25T10:12:23.427Z,4.10
2022-07-25T10:15:10.163Z,4.10
2022-07-25T10:17:38.283Z,4.03
2022-07-25T10:20:06.660Z,4.05
2022-07-25T10:22:57.860Z,4.25
2022-07-25T10:25:25.684Z,3.92
2022-07-25T10:27:59.945Z,4.00
2022-07-25T10:30:37.649Z,3.83
2022-07-25T10:33:05.001Z,3.90
2022-07-25T10:35:32.318Z,3.58
2022-07-25T10:38:00.295Z,3.72
2022-07-25T10:40:33.391Z,4.13
2022-07-25T10:43:07.664Z,4.32
2022-07-25T10:45:56.653Z,4.22
2022-07-25T10:48:26.271Z,4.03
2022-07-25T10:50:55.828Z,4.20
2022-07-25T10:53:33.340Z,4.32
2022-07-25T10:56:07.943Z,3.50
2022-07-25T10:58:44.375Z,3.70
2022-07-25T11:01:14.256Z,3.72
2022-07-25T11:03:45.116Z,3.80
2022-07-25T11:06:15.890Z,4.05
2022-07-25T11:08:44.063Z,3.40
2022-07-25T11:11:12.073Z,4.10
2022-07-25T11:13:42.778Z,3.70
2022-07-25T11:16:10.492Z,3.78
2022-07-25T11:18:39.293Z,3.63
2022-07-25T11:21:07.992Z,3.17
2022-07-25T11:23:36.510Z,3.88
2022-07-25T11:26:10.819Z,3.85
2022-07-25T11:28:49.231Z,3.83
2022-07-25T11:31:17.191Z,3.83
2022-07-25T11:33:47.077Z,3.85
2022-07-25T11:36:14.984Z,3.65
2022-07-25T11:38:43.179Z,3.30
2022-07-25T11:41:10.485Z,3.60
2022-07-25T11:43:37.727Z,3.55
2022-07-25T11:46:06.847Z,3.25
2022-07-25T11:48:35.477Z,3.40
2022-07-25T11:51:18.911Z,3.10
2022-07-25T11:53:50.541Z,3.60
2022-07-25T11:56:41.326Z,3.35
2022-07-25T11:59:07.944Z,3.58
2022-07-25T12:01:39.501Z,3.40
2022-07-25T12:04:19.691Z,4.10
2022-07-25T12:06:48.156Z,3.58
2022-07-25T12:09:19.842Z,3.78
2022-07-25T12:11:47.844Z,3.97
2022-07-25T12:14:15.651Z,3.72
2022-07-25T12:16:42.813Z,3.42
2022-07-25T12:19:18.835Z,3.53
2022-07-25T12:21:46.228Z,3.42
2022-07-25T12:24:13.684Z,3.17
2022-07-25T12:26:40.512Z,3.60
2022-07-25T12:29:08.388Z,3.13
2022-07-25T12:31:36.044Z,2.50
2022-07-25T12:34:03.618Z,2.50
2022-07-25T12:36:31.023Z,2.92
2022-07-25T12:38:58.296Z,2.88
2022-07-25T12:41:25.851Z,2.63
2022-07-25T12:43:53.198Z,2.58
2022-07-25T12:46:21.256Z,2.50
2022-07-25T12:48:49.676Z,2.97
2022-07-25T12:51:17.013Z,2.30
2022-07-25T12:53:44.262Z,2.30
2022-07-25T12:56:11.545Z,2.50
2022-07-25T12:58:38.801Z,2.22
2022-07-25T13:01:06.171Z,2.67
2022-07-25T13:03:33.923Z,2.33
2022-07-25T13:06:01.137Z,2.60
2022-07-25T13:08:28.386Z,2.47
2022-07-25T13:10:55.235Z,2.72
2022-07-25T13:13:22.077Z,2.88
2022-07-25T13:15:49.472Z,2.97
2022-07-25T13:18:16.766Z,3.10
2022-07-25T13:20:44.117Z,2.80
2022-07-25T13:23:11.476Z,2.88
2022-07-25T13:25:38.830Z,2.83
2022-07-25T13:28:10.774Z,2.80
2022-07-25T13:30:38.582Z,2.25
2022-07-25T13:33:05.788Z,2.65
2022-07-25T13:35:38.811Z,3.17
2022-07-25T13:38:09.643Z,2.90
2022-07-25T13:40:41.063Z,2.90
2022-07-25T13:43:11.452Z,2.75
2022-07-25T13:45:39.261Z,3.03
2022-07-25T13:48:28.279Z,2.88
2022-07-25T13:50:54.208Z,2.42
2022-07-25T13:53:22.872Z,2.97
2022-07-25T13:55:51.824Z,2.75
2022-07-25T13:58:18.675Z,3.28
2022-07-25T14:00:46.006Z,3.00
2022-07-25T14:03:13.351Z,2.80
2022-07-25T14:05:40.633Z,2.97
2022-07-25T14:08:08.420Z,3.10
2022-07-25T14:10:35.822Z,2.85
2022-07-25T14:13:03.933Z,3.25
2022-07-25T14:15:31.490Z,2.95
2022-07-25T14:17:58.887Z,2.97
2022-07-25T14:20:26.208Z,3.03
2022-07-25T14:22:53.461Z,2.97
2022-07-25T14:25:20.753Z,3.20
2022-07-25T14:27:48.330Z,2.75
2022-07-25T14:30:15.712Z,2.63
2022-07-25T14:32:43.080Z,3.05
2022-07-25T14:35:11.531Z,3.10
2022-07-25T14:37:38.769Z,3.03
2022-07-25T14:40:06.812Z,2.90
2022-07-25T14:42:34.417Z,3.15
2022-07-25T14:45:01.933Z,2.92
2022-07-25T14:47:29.462Z,2.80
2022-07-25T14:49:56.919Z,2.58
2022-07-25T14:52:24.803Z,2.85
2022-07-25T14:54:52.100Z,3.25
2022-07-25T14:57:19.473Z,2.63
2022-07-25T14:59:47.122Z,3.20
2022-07-25T15:02:14.478Z,2.88
2022-07-25T15:04:41.389Z,3.20
2022-07-25T15:07:09.168Z,2.72
2022-07-25T15:09:36.441Z,3.45
2022-07-25T15:12:03.983Z,3.38
2022-07-25T15:14:31.206Z,2.92
2022-07-25T15:16:58.767Z,2.95
2022-07-25T15:19:26.626Z,2.50
2022-07-25T15:21:54.412Z,2.65
2022-07-25T15:24:25.716Z,2.83
2022-07-25T15:26:56.011Z,3.08
2022-07-25T15:29:23.298Z,3.17
2022-07-25T15:31:50.948Z,2.40
2022-07-25T15:34:18.741Z,3.15
2022-07-25T15:36:46.458Z,3.03
2022-07-25T15:39:13.271Z,3.20
2022-07-25T15:41:40.700Z,2.80
2022-07-25T15:44:08.089Z,2.55
2022-07-25T15:46:35.632Z,2.65
2022-07-25T15:49:04.175Z,3.30
2022-07-25T15:51:31.756Z,3.10
2022-07-25T15:53:59.012Z,3.47
2022-07-25T15:56:26.676Z,3.05
2022-07-25T15:58:54.346Z,2.78
2022-07-25T16:01:22.380Z,2.90
2022-07-25T16:03:49.762Z,3.78
2022-07-25T16:06:20.540Z,3.63
2022-07-25T16:08:48.511Z,3.03
2022-07-25T16:11:24.424Z,2.55
2022-07-25T16:13:51.696Z,2.72
2022-07-25T16:16:21.834Z,2.90
2022-07-25T16:18:49.692Z,2.55
2022-07-25T16:21:17.139Z,3.05
2022-07-25T16:23:45.713Z,3.10
2022-07-25T16:26:13.763Z,2.80
2022-07-25T16:28:41.278Z,3.03
2022-07-25T16:31:09.375Z,2.53
2022-07-25T16:33:36.761Z,2.72
2022-07-25T16:36:04.724Z,2.70
2022-07-25T16:38:32.381Z,3.00
2022-07-25T16:40:59.605Z,3.03
2022-07-25T16:43:26.788Z,2.60
2022-07-25T16:45:54.051Z,3.20
2022-07-25T16:48:21.678Z,2.60
2022-07-25T16:50:48.936Z,2.75
2022-07-25T16:53:16.182Z,2.40
2022-07-25T16:55:43.409Z,1.92
2022-07-25T16:58:10.670Z,2.40
2022-07-25T17:00:38.748Z,2.42
2022-07-25T17:03:06.028Z,2.25
2022-07-25T17:05:33.354Z,2.33
2022-07-25T17:08:00.583Z,2.30
2022-07-25T17:10:28.379Z,1.85
2022-07-25T17:12:55.659Z,2.22
2022-07-25T17:15:23.254Z,2.30
2022-07-25T17:17:50.610Z,2.38
2022-07-25T17:20:18.585Z,2.13
2022-07-25T17:22:46.011Z,2.00
2022-07-25T17:25:13.404Z,2.10
2022-07-25T17:27:40.765Z,1.98
2022-07-25T17:30:08.314Z,1.90
2022-07-25T17:32:35.605Z,2.05
2022-07-25T17:35:02.818Z,2.10
2022-07-25T17:37:30.082Z,2.00
2022-07-25T17:39:57.314Z,2.13
2022-07-25T17:42:24.654Z,1.77
2022-07-25T17:44:54.902Z,1.80
2022-07-25T17:47:23.184Z,1.92
2022-07-25T17:49:50.655Z,1.63
2022-07-25T17:52:18.361Z,1.45
2022-07-25T17:54:45.892Z,1.40
2022-07-25T17:57:13.391Z,1.95
2022-07-25T17:59:40.353Z,1.80
2022-07-25T18:02:08.307Z,1.40
2022-07-25T18:04:36.025Z,1.20
2022-07-25T18:07:04.615Z,0.90
2022-07-25T18:09:32.053Z,1.10
2022-07-25T18:12:02.137Z,0.98
2022-07-25T18:14:30.256Z,0.80
2022-07-25T18:16:57.766Z,1.00
2022-07-25T18:19:25.308Z,1.00
2022-07-25T18:21:53.671Z,1.20
2022-07-25T18:24:22.253Z,0.80
2022-07-25T18:26:52.204Z,0.70
2022-07-25T18:29:20.089Z,1.15
2022-07-25T18:31:47.608Z,1.08
2022-07-25T18:34:15.041Z,1.13
2022-07-25T18:36:42.966Z,1.08
2022-07-25T18:39:10.360Z,0.63
2022-07-25T18:41:37.940Z,0.93
2022-07-25T18:44:05.609Z,1.17
2022-07-25T18:46:34.619Z,1.10
2022-07-25T18:49:03.121Z,0.73
2022-07-25T18:51:30.363Z,1.00
2022-07-25T18:53:58.076Z,1.05
2022-07-25T18:56:25.326Z,0.80
2022-07-25T18:58:52.655Z,1.13
2022-07-25T19:01:19.931Z,1.00
2022-07-25T19:03:47.195Z,0.88
2022-07-25T19:06:14.951Z,0.75
2022-07-25T19:08:43.720Z,0.63
2022-07-25T19:11:10.870Z,0.70
2022-07-25T19:13:49.489Z,0.95
2022-07-25T19:16:17.710Z,2.00
2022-07-25T19:18:45.246Z,0.90
2022-07-25T19:21:12.658Z,0.90
2022-07-25T19:23:39.474Z,0.88
2022-07-25T19:26:06.975Z,0.77
2022-07-25T19:28:35.576Z,0.80
2022-07-25T19:31:02.984Z,0.60
2022-07-25T19:33:34.704Z,1.00
2022-07-25T19:36:04.031Z,0.70
2022-07-25T19:38:30.931Z,0.70
2022-07-25T19:40:58.251Z,0.65
2022-07-25T19:43:25.540Z,0.50
2022-07-25T19:45:52.820Z,0.60
2022-07-25T19:48:23.665Z,0.80
2022-07-25T19:50:54.101Z,0.80
2022-07-25T19:53:25.365Z,0.90
2022-07-25T19:55:55.621Z,0.60
2022-07-25T19:58:23.087Z,0.63
2022-07-25T20:00:50.495Z,0.63
2022-07-25T20:03:23.132Z,0.80
2022-07-25T20:05:51.426Z,0.60
2022-07-25T20:08:19.035Z,0.88
2022-07-25T20:10:47.352Z,0.60
2022-07-25T20:13:14.797Z,0.60
2022-07-25T20:15:42.154Z,0.65
2022-07-25T20:18:08.973Z,0.60
2022-07-25T20:20:36.265Z,0.70
2022-07-25T20:23:03.974Z,0.50
2022-07-25T20:25:31.279Z,0.50
2022-07-25T20:27:58.504Z,0.77
2022-07-25T20:30:27.518Z,0.60
2022-07-25T20:32:56.449Z,0.40
2022-07-25T20:35:23.892Z,0.80
2022-07-25T20:37:51.125Z,0.88
2022-07-25T20:40:19.378Z,0.40
2022-07-25T20:42:47.565Z,0.77
2022-07-25T20:45:14.802Z,0.55
2022-07-25T20:47:42.048Z,0.40
2022-07-25T20:50:09.989Z,0.50
2022-07-25T20:52:38.602Z,0.50
2022-07-25T20:55:08.218Z,0.50
2022-07-25T20:57:35.582Z,0.70
2022-07-25T21:00:03.148Z,0.60
2022-07-25T21:02:30.552Z,0.50
2022-07-25T21:04:57.797Z,0.50
2022-07-25T21:07:25.083Z,0.55
2022-07-25T21:09:52.363Z,0.60
2022-07-25T21:12:19.798Z,0.77
2022-07-25T21:14:47.095Z,0.45
2022-07-25T21:17:14.427Z,0.50
2022-07-25T21:19:41.355Z,0.63
2022-07-25T21:22:08.777Z,0.63
2022-07-25T21:24:36.029Z,0.50
2022-07-25T21:27:03.278Z,0.60
2022-07-25T21:29:30.746Z,0.40
2022-07-25T21:31:58.040Z,0.80
2022-07-25T21:34:25.088Z,0.80
2022-07-25T21:36:52.347Z,0.80
2022-07-25T21:39:19.565Z,0.68
2022-07-25T21:41:46.867Z,0.70
2022-07-25T21:44:22.402Z,0.45
2022-07-25T21:46:50.871Z,0.65
2022-07-25T21:49:41.326Z,0.40
2022-07-25T21:52:13.595Z,0.55
2022-07-25T21:54:41.930Z,0.60
2022-07-25T21:57:13.040Z,0.90
2022-07-25T21:59:41.918Z,0.60
2022-07-25T22:02:09.130Z,0.70
2022-07-25T22:04:36.511Z,0.57
2022-07-25T22:07:04.099Z,0.80
2022-07-25T22:09:31.434Z,0.50
2022-07-25T22:11:58.869Z,0.50
2022-07-25T22:14:26.113Z,0.70
2022-07-25T22:16:53.828Z,0.60
2022-07-25T22:19:22.657Z,0.77
2022-07-25T22:21:50.332Z,0.70
2022-07-25T22:24:17.953Z,0.60
2022-07-25T22:26:45.622Z,0.70
2022-07-25T22:29:12.991Z,0.47
2022-07-25T22:31:40.366Z,0.70
2022-07-25T22:34:07.664Z,0.63
2022-07-25T22:36:34.968Z,0.80
2022-07-25T22:39:02.262Z,0.50
2022-07-25T22:41:29.681Z,0.93
2022-07-25T22:43:59.646Z,0.70
2022-07-25T22:46:31.169Z,0.55
2022-07-25T22:48:59.038Z,0.60
2022-07-25T22:51:26.628Z,0.50
2022-07-25T22:53:54.068Z,0.60
2022-07-25T22:56:21.848Z,1.00
2022-07-25T22:58:49.509Z,2.63
2022-07-25T23:01:17.686Z,0.70
2022-07-25T23:03:45.067Z,1.38
2022-07-25T23:06:12.501Z,1.23
2022-07-25T23:08:39.780Z,0.70
2022-07-25T23:11:06.998Z,1.05
2022-07-25T23:13:34.870Z,0.80
2022-07-25T23:16:03.248Z,0.70
2022-07-25T23:18:30.968Z,1.10
2022-07-25T23:20:58.374Z,0.65
2022-07-25T23:23:25.691Z,0.55
2022-07-25T23:25:53.405Z,0.88
2022-07-25T23:28:20.959Z,0.70
2022-07-25T23:30:51.419Z,0.57
2022-07-25T23:33:18.613Z,0.63
2022-07-25T23:35:52.605Z,0.70
2022-07-25T23:38:19.431Z,0.75
2022-07-25T23:40:46.691Z,0.82
2022-07-25T23:43:13.635Z,0.80
2022-07-25T23:45:43.628Z,1.00
2022-07-25T23:48:13.206Z,0.60
2022-07-25T23:50:40.398Z,0.90
2022-07-25T23:53:07.581Z,0.63
2022-07-25T23:55:34.840Z,0.77
2022-07-25T23:58:02.353Z,1.00
